createdAt,value
2018-07-12T00:00:59.397Z,28.00
2018-07-12T00:03:27.185Z,34.30
2018-07-12T00:05:54.956Z,20.30
2018-07-12T00:08:22.748Z,26.90
2018-07-12T00:10:50.515Z,18.90
2018-07-12T00:13:18.322Z,24.43
2018-07-12T00:15:46.100Z,24.57
2018-07-12T00:18:13.892Z,26.20
2018-07-12T00:20:41.644Z,26.87
2018-07-12T00:23:09.445Z,25.90
2018-07-12T00:25:37.277Z,40.57
2018-07-12T00:28:05.061Z,28.83
2018-07-12T00:30:33.232Z,28.70
2018-07-12T00:33:01.034Z,34.90
2018-07-12T00:35:28.820Z,48.70
2018-07-12T00:37:56.593Z,58.03
2018-07-12T00:40:24.384Z,54.33
2018-07-12T00:42:52.152Z,59.20
2018-07-12T00:45:19.934Z,81.27
2018-07-12T00:47:47.683Z,71.83
2018-07-12T00:50:15.465Z,80.60
2018-07-12T00:52:43.216Z,62.37
2018-07-12T00:55:11.000Z,69.83
2018-07-12T00:57:38.751Z,66.10
2018-07-12T01:00:06.523Z,74.63
2018-07-12T01:02:34.272Z,74.73
2018-07-12T01:05:02.068Z,68.20
2018-07-12T01:07:29.876Z,60.13
2018-07-12T01:09:57.680Z,65.40
2018-07-12T01:12:25.447Z,67.90
2018-07-12T01:14:53.221Z,69.50
2018-07-12T01:17:20.985Z,65.93
2018-07-12T01:19:48.773Z,54.70
2018-07-12T01:22:16.561Z,56.30
2018-07-12T01:24:44.347Z,55.30
2018-07-12T01:27:12.088Z,57.77
2018-07-12T01:29:39.868Z,63.60
2018-07-12T01:32:07.612Z,67.83
2018-07-12T01:34:35.382Z,59.37
2018-07-12T01:37:03.148Z,59.50
2018-07-12T01:39:30.896Z,67.40
2018-07-12T01:41:58.672Z,48.30
2018-07-12T01:44:26.428Z,63.73
2018-07-12T01:46:54.211Z,61.17
2018-07-12T01:49:21.959Z,55.00
2018-07-12T01:51:49.728Z,59.20
2018-07-12T01:54:17.479Z,63.97
2018-07-12T01:56:45.268Z,54.83
2018-07-12T01:59:13.046Z,74.60
2018-07-12T02:01:40.821Z,73.53
2018-07-12T02:04:08.587Z,57.77
2018-07-12T02:06:36.369Z,56.43
2018-07-12T02:09:04.835Z,57.33
2018-07-12T02:11:32.636Z,57.97
2018-07-12T02:14:00.424Z,59.53
2018-07-12T02:16:28.204Z,59.07
2018-07-12T02:18:55.952Z,73.23
2018-07-12T02:21:23.724Z,79.30
2018-07-12T02:23:51.472Z,80.87
2018-07-12T02:26:19.248Z,79.33
2018-07-12T02:28:47.002Z,80.73
2018-07-12T02:31:14.770Z,83.40
2018-07-12T02:33:42.524Z,83.97
2018-07-12T02:36:10.303Z,76.10
2018-07-12T02:38:38.068Z,69.10
2018-07-12T02:41:05.840Z,78.57
2018-07-12T02:43:33.640Z,77.27
2018-07-12T02:46:01.416Z,90.73
2018-07-12T02:48:29.195Z,85.60
2018-07-12T02:50:56.949Z,82.93
2018-07-12T02:53:24.716Z,91.67
2018-07-12T02:55:52.472Z,82.70
2018-07-12T02:58:20.252Z,86.23
2018-07-12T03:00:48.013Z,99.60
2018-07-12T03:03:15.777Z,83.23
2018-07-12T03:05:43.523Z,80.60
2018-07-12T03:08:11.305Z,87.97
2018-07-12T03:10:39.052Z,75.63
2018-07-12T03:13:06.833Z,84.80
2018-07-12T03:15:34.589Z,85.10
2018-07-12T03:18:02.377Z,74.43
2018-07-12T03:20:30.129Z,65.70
2018-07-12T03:22:57.912Z,78.33
2018-07-12T03:25:25.676Z,64.42
2018-07-12T03:27:53.448Z,78.63
2018-07-12T03:30:21.204Z,74.03
2018-07-12T03:32:48.978Z,79.32
2018-07-12T03:35:16.730Z,62.75
2018-07-12T03:37:44.516Z,58.95
2018-07-12T03:40:12.272Z,63.13
2018-07-12T03:42:40.044Z,52.38
2018-07-12T03:45:07.788Z,52.73
2018-07-12T03:47:35.560Z,56.20
2018-07-12T03:50:03.313Z,59.23
2018-07-12T03:52:31.092Z,51.27
2018-07-12T03:54:58.844Z,66.75
2018-07-12T03:57:26.600Z,59.13
2018-07-12T03:59:54.378Z,61.60
2018-07-12T04:02:22.132Z,61.67
2018-07-12T04:04:49.957Z,64.80
2018-07-12T04:07:17.708Z,57.80
2018-07-12T04:09:45.505Z,61.50
2018-07-12T04:12:13.251Z,54.00
2018-07-12T04:14:41.028Z,66.60
2018-07-12T04:17:08.789Z,60.50
2018-07-12T04:19:36.564Z,60.53
2018-07-12T04:22:04.321Z,54.60
2018-07-12T04:24:32.116Z,54.40
2018-07-12T04:26:59.865Z,54.23
2018-07-12T04:29:27.654Z,53.33
2018-07-12T04:31:55.425Z,51.50
2018-07-12T04:34:23.208Z,56.68
2018-07-12T04:36:50.964Z,51.60
2018-07-12T04:39:18.752Z,43.83
2018-07-12T04:41:46.504Z,48.13
2018-07-12T04:44:14.280Z,48.87
2018-07-12T04:46:42.056Z,58.63
2018-07-12T04:49:09.828Z,54.20
2018-07-12T04:51:37.581Z,49.35
2018-07-12T04:54:05.364Z,48.23
2018-07-12T04:56:33.122Z,53.07
2018-07-12T04:59:00.932Z,53.40
2018-07-12T05:01:28.731Z,57.78
2018-07-12T05:03:56.484Z,70.23
2018-07-12T05:06:24.261Z,53.23
2018-07-12T05:08:52.013Z,57.90
2018-07-12T05:11:19.784Z,56.90
2018-07-12T05:13:47.560Z,56.80
2018-07-12T05:16:15.401Z,61.67
2018-07-12T05:18:43.108Z,54.43
2018-07-12T05:21:10.893Z,55.38
2018-07-12T05:23:38.666Z,59.60
2018-07-12T05:26:06.457Z,55.03
2018-07-12T05:28:34.215Z,54.63
2018-07-12T05:31:02.004Z,56.33
2018-07-12T05:33:29.770Z,60.75
2018-07-12T05:35:58.706Z,53.78
2018-07-12T05:38:27.553Z,53.83
2018-07-12T05:40:56.382Z,54.10
2018-07-12T05:43:25.231Z,59.20
2018-07-12T05:45:54.050Z,58.60
2018-07-12T05:48:22.860Z,55.77
2018-07-12T05:50:52.033Z,60.97
2018-07-12T05:53:21.120Z,59.77
2018-07-12T05:55:50.224Z,70.60
2018-07-12T05:58:19.343Z,56.07
2018-07-12T06:00:48.434Z,56.15
2018-07-12T06:03:17.580Z,64.63
2018-07-12T06:05:46.665Z,55.78
2018-07-12T06:08:15.777Z,49.20
2018-07-12T06:10:45.589Z,47.37
2018-07-12T06:13:14.755Z,53.87
2018-07-12T06:15:43.790Z,53.40
2018-07-12T06:18:12.900Z,57.80
2018-07-12T06:20:42.004Z,62.83
2018-07-12T06:23:11.176Z,51.80
2018-07-12T06:25:40.256Z,61.80
2018-07-12T06:28:09.381Z,52.80
2018-07-12T06:30:38.459Z,53.27
2018-07-12T06:33:07.592Z,53.43
2018-07-12T06:35:36.975Z,57.23
2018-07-12T06:38:06.117Z,51.00
2018-07-12T06:40:35.245Z,52.40
2018-07-12T06:43:04.456Z,50.93
2018-07-12T06:45:33.544Z,53.10
2018-07-12T06:48:04.432Z,61.83
2018-07-12T06:50:33.576Z,56.90
2018-07-12T06:53:02.712Z,63.33
2018-07-12T06:55:32.709Z,70.57
2018-07-12T07:00:36.449Z,71.23
2018-07-12T07:03:13.439Z,69.72
2018-07-12T07:05:42.544Z,67.78
2018-07-12T07:08:11.664Z,65.17
2018-07-12T07:10:40.887Z,64.27
2018-07-12T07:13:10.385Z,63.52
2018-07-12T07:15:39.613Z,55.03
2018-07-12T07:18:08.729Z,55.73
2018-07-12T07:20:37.912Z,70.47
2018-07-12T07:23:07.076Z,63.05
2018-07-12T07:25:36.217Z,53.83
2018-07-12T07:28:05.453Z,52.65
2018-07-12T07:30:34.591Z,60.38
2018-07-12T07:33:03.710Z,52.33
2018-07-12T07:35:32.912Z,43.35
2018-07-12T07:38:02.458Z,42.43
2018-07-12T07:40:32.757Z,37.33
2018-07-12T07:43:02.041Z,49.23
2018-07-12T07:45:31.084Z,33.70
2018-07-12T07:48:00.536Z,39.93
2018-07-12T07:50:29.805Z,35.08
2018-07-12T07:52:58.959Z,32.27
2018-07-12T07:55:28.108Z,32.93
2018-07-12T07:57:57.205Z,30.27
2018-07-12T08:00:26.342Z,33.23
2018-07-12T08:02:55.440Z,41.42
2018-07-12T08:05:24.569Z,27.90
2018-07-12T08:07:53.668Z,31.67
2018-07-12T08:10:22.864Z,37.27
2018-07-12T08:12:51.968Z,32.03
2018-07-12T08:15:21.261Z,32.05
2018-07-12T08:17:50.456Z,27.98
2018-07-12T08:20:20.540Z,25.87
2018-07-12T08:22:49.688Z,25.20
2018-07-12T08:25:19.057Z,25.50
2018-07-12T08:27:59.822Z,22.27
2018-07-12T08:30:29.196Z,31.50
2018-07-12T08:32:59.964Z,36.77
2018-07-12T08:35:29.201Z,21.67
2018-07-12T08:37:58.464Z,21.10
2018-07-12T08:40:28.514Z,31.23
2018-07-12T08:42:58.149Z,24.23
2018-07-12T08:45:27.532Z,22.63
2018-07-12T08:47:57.578Z,23.50
2018-07-12T08:50:27.045Z,22.47
2018-07-12T08:52:57.043Z,21.55
2018-07-12T08:55:27.603Z,18.87
2018-07-12T08:57:56.814Z,25.03
2018-07-12T09:00:26.013Z,25.95
2018-07-12T09:02:55.241Z,17.70
2018-07-12T09:05:24.367Z,21.37
2018-07-12T09:07:53.878Z,20.25
2018-07-12T09:10:22.990Z,19.67
2018-07-12T09:12:52.342Z,18.48
2018-07-12T09:15:21.456Z,23.07
2018-07-12T09:17:50.555Z,18.32
2018-07-12T09:20:19.702Z,21.23
2018-07-12T09:22:48.866Z,24.30
2018-07-12T09:25:18.045Z,21.70
2018-07-12T09:27:47.150Z,16.93
2018-07-12T09:30:16.337Z,17.60
2018-07-12T09:32:45.918Z,17.50
2018-07-12T09:35:15.317Z,21.90
2018-07-12T09:37:44.396Z,12.03
2018-07-12T09:40:13.508Z,22.40
2018-07-12T09:42:42.610Z,19.80
2018-07-12T09:45:11.705Z,14.28
2018-07-12T09:47:40.836Z,11.77
2018-07-12T09:50:10.278Z,19.37
2018-07-12T09:52:39.369Z,10.50
2018-07-12T09:55:08.496Z,16.02
2018-07-12T09:57:48.875Z,23.47
2018-07-12T10:00:18.086Z,11.12
2018-07-12T10:02:52.633Z,10.50
2018-07-12T10:05:26.956Z,14.83
2018-07-12T10:08:01.466Z,14.07
2018-07-12T10:10:30.922Z,18.92
2018-07-12T10:13:05.397Z,19.23
2018-07-12T10:15:39.889Z,13.48
2018-07-12T10:18:14.280Z,12.47
2018-07-12T10:20:43.612Z,9.57
2018-07-12T10:23:12.746Z,21.70
2018-07-12T10:25:41.853Z,15.23
2018-07-12T10:28:10.959Z,10.25
2018-07-12T10:30:40.073Z,8.80
2018-07-12T10:33:09.939Z,8.48
2018-07-12T10:35:39.049Z,10.33
2018-07-12T10:38:08.240Z,10.50
2018-07-12T10:40:37.344Z,21.43
2018-07-12T10:43:06.469Z,11.78
2018-07-12T10:45:35.581Z,8.83
2018-07-12T10:48:04.736Z,6.55
2018-07-12T10:50:34.021Z,8.10
2018-07-12T10:53:03.340Z,7.33
2018-07-12T10:55:32.709Z,15.10
2018-07-12T10:58:01.901Z,5.57
2018-07-12T11:00:31.030Z,10.60
2018-07-12T11:03:00.175Z,8.70
2018-07-12T11:05:29.272Z,10.80
2018-07-12T11:07:58.400Z,13.53
2018-07-12T11:10:27.556Z,6.87
2018-07-12T11:13:08.088Z,9.70
2018-07-12T11:15:37.176Z,12.60
2018-07-12T11:18:07.148Z,6.13
2018-07-12T11:20:36.492Z,8.05
2018-07-12T11:23:05.752Z,10.30
2018-07-12T11:25:34.865Z,5.30
2018-07-12T11:28:04.496Z,12.77
2018-07-12T11:30:34.093Z,5.50
2018-07-12T11:33:45.923Z,8.60
2018-07-12T11:36:15.544Z,10.37
2018-07-12T11:38:45.985Z,6.60
2018-07-12T11:41:15.877Z,3.83
2018-07-12T11:43:45.776Z,17.87
2018-07-12T11:46:16.327Z,8.27
2018-07-12T11:48:47.332Z,4.77
2018-07-12T11:51:16.997Z,4.07
2018-07-12T11:53:46.153Z,6.33
2018-07-12T11:56:15.284Z,7.80
2018-07-12T11:58:46.579Z,4.70
2018-07-12T12:01:15.904Z,4.33
2018-07-12T12:03:45.099Z,9.70
2018-07-12T12:06:14.330Z,4.60
2018-07-12T12:08:43.700Z,4.70
2018-07-12T12:11:12.817Z,4.30
2018-07-12T12:13:41.942Z,5.90
2018-07-12T12:16:11.082Z,9.20
2018-07-12T12:18:40.412Z,11.00
2018-07-12T12:21:09.577Z,10.87
2018-07-12T12:23:38.725Z,8.60
2018-07-12T12:26:07.904Z,5.67
2018-07-12T12:28:37.173Z,6.05
2018-07-12T12:31:06.812Z,8.23
2018-07-12T12:33:36.130Z,5.30
2018-07-12T12:36:05.433Z,5.27
2018-07-12T12:38:34.601Z,7.23
2018-07-12T12:41:04.576Z,10.27
2018-07-12T12:43:33.830Z,7.63
2018-07-12T12:46:02.949Z,4.77
2018-07-12T12:48:32.037Z,9.97
2018-07-12T12:51:01.218Z,4.75
2018-07-12T12:53:30.315Z,3.97
2018-07-12T12:55:59.476Z,4.55
2018-07-12T12:58:28.555Z,7.90
2018-07-12T13:00:57.664Z,5.92
2018-07-12T13:03:26.764Z,3.43
2018-07-12T13:05:55.884Z,2.90
2018-07-12T13:08:24.969Z,2.90
2018-07-12T13:10:54.093Z,2.67
2018-07-12T13:13:23.192Z,2.33
2018-07-12T13:15:52.466Z,2.75
2018-07-12T13:18:21.520Z,4.95
2018-07-12T13:20:50.664Z,7.10
2018-07-12T13:23:20.056Z,10.23
2018-07-12T13:25:49.295Z,4.12
2018-07-12T13:28:18.338Z,4.40
2018-07-12T13:30:47.485Z,5.67
2018-07-12T13:33:16.580Z,5.07
2018-07-12T13:35:45.706Z,4.07
2018-07-12T13:38:14.793Z,2.60
2018-07-12T13:40:43.908Z,3.15
2018-07-12T13:43:13.009Z,4.00
2018-07-12T13:45:42.130Z,3.52
2018-07-12T13:48:11.244Z,4.93
2018-07-12T13:50:40.405Z,3.03
2018-07-12T13:53:09.507Z,6.83
2018-07-12T13:55:38.615Z,4.55
2018-07-12T13:58:07.741Z,8.70
2018-07-12T14:00:36.807Z,5.30
2018-07-12T14:03:05.914Z,10.27
2018-07-12T14:05:35.003Z,9.47
2018-07-12T14:08:04.101Z,3.12
2018-07-12T14:10:33.237Z,5.10
2018-07-12T14:13:02.365Z,8.13
2018-07-12T14:15:31.493Z,3.93
2018-07-12T14:18:00.854Z,3.67
2018-07-12T14:20:29.977Z,4.70
2018-07-12T14:22:59.108Z,4.70
2018-07-12T14:25:28.210Z,4.47
2018-07-12T14:27:57.365Z,8.53
2018-07-12T14:30:26.481Z,14.87
2018-07-12T14:32:55.586Z,7.60
2018-07-12T14:35:24.752Z,6.57
2018-07-12T14:37:53.912Z,7.63
2018-07-12T14:40:23.328Z,11.03
2018-07-12T14:42:52.528Z,8.73
2018-07-12T14:45:21.676Z,11.93
2018-07-12T14:47:50.817Z,9.60
2018-07-12T14:50:19.945Z,9.63
2018-07-12T14:52:49.077Z,5.33
2018-07-12T14:55:18.204Z,7.77
2018-07-12T14:57:47.349Z,9.77
2018-07-12T15:00:16.446Z,8.28
2018-07-12T15:02:45.645Z,10.83
2018-07-12T15:05:14.717Z,12.23
2018-07-12T15:07:43.804Z,6.70
2018-07-12T15:10:12.924Z,7.40
2018-07-12T15:12:42.024Z,10.68
2018-07-12T15:15:11.153Z,8.70
2018-07-12T15:17:40.327Z,14.53
2018-07-12T15:20:09.484Z,7.00
2018-07-12T15:22:38.568Z,16.50
2018-07-12T15:25:07.724Z,9.83
2018-07-12T15:27:36.807Z,12.57
2018-07-12T15:30:06.200Z,10.87
2018-07-12T15:32:35.300Z,10.57
2018-07-12T15:35:04.429Z,8.77
2018-07-12T15:37:33.534Z,7.00
2018-07-12T15:40:02.716Z,16.60
2018-07-12T15:42:31.848Z,15.28
2018-07-12T15:45:00.961Z,10.15
2018-07-12T15:47:30.077Z,8.13
2018-07-12T15:49:59.296Z,11.83
2018-07-12T15:52:28.486Z,20.43
2018-07-12T15:54:57.653Z,8.57
2018-07-12T15:57:26.864Z,8.53
2018-07-12T15:59:55.985Z,8.70
2018-07-12T16:02:25.084Z,9.60
2018-07-12T16:04:54.201Z,8.90
2018-07-12T16:07:23.381Z,19.83
2018-07-12T16:09:52.514Z,5.90
2018-07-12T16:12:21.617Z,7.17
2018-07-12T16:14:50.738Z,6.35
2018-07-12T16:17:19.876Z,7.80
2018-07-12T16:19:49.917Z,9.18
2018-07-12T16:22:19.065Z,11.27
2018-07-12T16:24:48.196Z,8.03
2018-07-12T16:27:17.320Z,8.60
2018-07-12T16:29:46.493Z,16.70
2018-07-12T16:32:15.549Z,6.83
2018-07-12T16:34:44.697Z,6.87
2018-07-12T16:37:13.832Z,5.60
2018-07-12T16:39:42.949Z,7.73
2018-07-12T16:42:12.069Z,3.53
2018-07-12T16:44:41.172Z,6.00
2018-07-12T16:47:11.309Z,7.30
2018-07-12T16:49:40.457Z,6.33
2018-07-12T16:52:09.565Z,7.23
2018-07-12T16:54:38.816Z,7.10
2018-07-12T16:57:07.809Z,10.43
2018-07-12T16:59:36.950Z,3.75
2018-07-12T17:02:06.065Z,6.47
2018-07-12T17:04:35.182Z,10.13
2018-07-12T17:07:04.463Z,6.70
2018-07-12T17:09:33.734Z,6.97
2018-07-12T17:12:02.845Z,5.53
2018-07-12T17:14:31.933Z,7.83
2018-07-12T17:17:01.033Z,9.67
2018-07-12T17:19:30.168Z,5.60
2018-07-12T17:21:59.270Z,6.60
2018-07-12T17:24:28.400Z,4.00
2018-07-12T17:26:57.505Z,6.22
2018-07-12T17:29:26.589Z,3.20
2018-07-12T17:31:55.774Z,3.30
2018-07-12T17:34:24.904Z,8.75
2018-07-12T17:36:54.084Z,7.87
2018-07-12T17:39:23.228Z,8.90
2018-07-12T17:41:52.449Z,7.47
2018-07-12T17:44:21.565Z,7.33
2018-07-12T17:46:50.665Z,9.43
2018-07-12T17:49:19.755Z,3.70
2018-07-12T17:51:48.872Z,5.83
2018-07-12T17:54:17.963Z,6.10
2018-07-12T17:56:47.124Z,6.33
2018-07-12T17:59:17.185Z,6.00
2018-07-12T18:01:46.790Z,5.55
2018-07-12T18:04:19.657Z,8.70
2018-07-12T18:06:48.761Z,5.60
2018-07-12T18:09:17.867Z,9.70
2018-07-12T18:11:46.972Z,4.17
2018-07-12T18:14:16.128Z,8.93
2018-07-12T18:16:45.282Z,4.12
2018-07-12T18:19:14.369Z,3.35
2018-07-12T18:21:43.486Z,5.65
2018-07-12T18:24:12.589Z,2.93
2018-07-12T18:26:41.685Z,4.40
2018-07-12T18:29:10.808Z,4.30
2018-07-12T18:31:39.923Z,5.47
2018-07-12T18:34:09.084Z,5.27
2018-07-12T18:36:38.215Z,5.72
2018-07-12T18:39:09.236Z,2.85
2018-07-12T18:41:38.560Z,5.40
2018-07-12T18:44:07.669Z,3.70
2018-07-12T18:46:36.771Z,6.23
2018-07-12T18:49:06.404Z,4.50
2018-07-12T18:51:36.303Z,7.17
2018-07-12T18:54:05.405Z,4.70
2018-07-12T18:56:34.629Z,4.90
2018-07-12T18:59:03.712Z,4.33
2018-07-12T19:01:32.822Z,2.93
2018-07-12T19:04:01.934Z,5.47
2018-07-12T19:06:31.095Z,3.47
2018-07-12T19:09:00.197Z,3.55
2018-07-12T19:11:29.301Z,3.50
2018-07-12T19:13:58.390Z,8.53
2018-07-12T19:16:27.532Z,8.33
2018-07-12T19:18:56.628Z,7.87
2018-07-12T19:21:25.808Z,6.62
2018-07-12T19:23:58.730Z,6.17
2018-07-12T19:26:27.914Z,3.00
2018-07-12T19:28:57.179Z,14.40
2018-07-12T19:31:26.374Z,7.93
2018-07-12T19:33:55.471Z,5.20
2018-07-12T19:36:24.585Z,4.67
2018-07-12T19:38:53.701Z,8.10
2018-07-12T19:41:22.814Z,9.20
2018-07-12T19:43:52.161Z,4.67
2018-07-12T19:46:21.293Z,11.93
2018-07-12T19:48:51.061Z,6.20
2018-07-12T19:51:20.192Z,5.43
2018-07-12T19:53:49.264Z,8.13
2018-07-12T19:56:18.408Z,5.43
2018-07-12T19:58:47.503Z,4.45
2018-07-12T20:01:16.648Z,8.23
2018-07-12T20:03:45.794Z,5.87
2018-07-12T20:06:14.912Z,9.80
2018-07-12T20:08:44.072Z,6.80
2018-07-12T20:11:13.213Z,8.53
2018-07-12T20:13:42.288Z,8.30
2018-07-12T20:16:11.410Z,4.50
2018-07-12T20:18:40.579Z,5.17
2018-07-12T20:21:09.736Z,8.00
2018-07-12T20:23:38.882Z,5.92
2018-07-12T20:26:08.132Z,5.70
2018-07-12T20:28:37.308Z,15.10
2018-07-12T20:31:06.844Z,6.27
2018-07-12T20:33:36.414Z,6.70
2018-07-12T20:36:05.485Z,10.40
2018-07-12T20:38:34.668Z,6.97
2018-07-12T20:41:03.780Z,5.30
2018-07-12T20:43:33.081Z,4.27
2018-07-12T20:46:02.174Z,13.60
2018-07-12T20:48:31.289Z,7.97
2018-07-12T20:51:00.410Z,3.93
2018-07-12T20:53:29.529Z,5.50
2018-07-12T20:55:58.676Z,7.17
2018-07-12T20:58:27.780Z,4.80
2018-07-12T21:00:56.961Z,5.23
2018-07-12T21:03:26.029Z,8.00
2018-07-12T21:05:55.145Z,7.20
2018-07-12T21:08:24.281Z,7.27
2018-07-12T21:10:53.436Z,3.67
2018-07-12T21:13:22.568Z,13.63
2018-07-12T21:15:51.665Z,8.40
2018-07-12T21:18:20.796Z,11.47
2018-07-12T21:20:49.896Z,6.80
2018-07-12T21:23:19.076Z,9.63
2018-07-12T21:25:48.225Z,11.80
2018-07-12T21:28:17.338Z,6.47
2018-07-12T21:30:46.469Z,12.03
2018-07-12T21:33:15.629Z,11.27
2018-07-12T21:35:44.719Z,7.33
2018-07-12T21:38:14.312Z,10.40
2018-07-12T21:40:43.436Z,9.27
2018-07-12T21:43:12.604Z,9.40
2018-07-12T21:45:41.791Z,14.20
2018-07-12T21:48:10.901Z,12.57
2018-07-12T21:50:40.019Z,9.17
2018-07-12T21:53:09.152Z,10.40
2018-07-12T21:55:38.277Z,10.43
2018-07-12T21:58:07.381Z,9.90
2018-07-12T22:00:36.503Z,11.23
2018-07-12T22:03:05.615Z,15.50
2018-07-12T22:05:34.704Z,10.23
2018-07-12T22:08:27.676Z,8.83
2018-07-12T22:11:05.904Z,13.73
2018-07-12T22:13:36.457Z,12.73
2018-07-12T22:16:05.554Z,7.50
2018-07-12T22:18:34.673Z,10.40
2018-07-12T22:21:03.790Z,14.27
2018-07-12T22:23:32.912Z,9.97
2018-07-12T22:26:01.996Z,16.87
2018-07-12T22:28:31.124Z,14.27
2018-07-12T22:31:00.226Z,26.10
2018-07-12T22:33:29.354Z,24.67
2018-07-12T22:35:58.476Z,20.33
2018-07-12T22:38:27.593Z,32.97
2018-07-12T22:40:56.708Z,24.77
2018-07-12T22:43:25.823Z,40.13
2018-07-12T22:45:54.908Z,25.37
2018-07-12T22:48:24.165Z,32.50
2018-07-12T22:50:53.175Z,28.30
2018-07-12T22:53:22.308Z,21.60
2018-07-12T22:55:51.410Z,21.97
2018-07-12T22:58:20.522Z,22.73
2018-07-12T23:00:49.623Z,26.83
2018-07-12T23:03:18.760Z,21.73
2018-07-12T23:05:47.845Z,14.03
2018-07-12T23:08:16.976Z,27.33
2018-07-12T23:10:46.085Z,20.80
2018-07-12T23:13:15.196Z,20.50
2018-07-12T23:15:44.896Z,17.93
2018-07-12T23:18:14.000Z,21.77
2018-07-12T23:20:43.083Z,33.03
2018-07-12T23:23:12.188Z,20.73
2018-07-12T23:25:41.268Z,28.90
2018-07-12T23:28:10.401Z,16.97
2018-07-12T23:30:39.479Z,19.13
2018-07-12T23:33:08.616Z,14.00
2018-07-12T23:35:37.735Z,20.73
2018-07-12T23:38:06.912Z,19.20
2018-07-12T23:40:35.997Z,28.13
2018-07-12T23:43:05.124Z,24.80
2018-07-12T23:45:34.207Z,22.77
2018-07-12T23:48:03.302Z,20.03
2018-07-12T23:50:32.424Z,18.17
2018-07-12T23:53:01.505Z,19.73
2018-07-12T23:55:30.649Z,26.30
2018-07-12T23:57:59.768Z,25.73
